Time;durP1;ratioP1;P1;durP2;ratioP2;P2;SDS_P1;SDS_P2;PMS_P1;PMS_P2;Temp;Humidity;BMP_temperature;BMP_pressure;BME280_temperature;BME280_humidity;BME280_pressure;Samples;Min_cycle;Max_cycle;Signal;HPM_P1;HPM_P2
2021/01/17 00:00:32;;;;;;;47.93;26.33;;;;;;;-5.15;100.00;95867.78;1033722;28;20046;-65
2021/01/17 00:01:04;;;;;;;47.88;26.25;;;;;;;-5.14;100.00;95863.44;1036829;28;20834;-63
2021/01/17 00:01:41;;;;;;;52.95;27.42;;;;;;;-5.14;100.00;95861.69;1030259;28;20045;-63
2021/01/17 00:02:12;;;;;;;51.03;26.98;;;;;;;-5.12;100.00;95862.34;1030024;28;20806;-64
2021/01/17 00:02:46;;;;;;;47.30;25.77;;;;;;;-5.14;100.00;95859.13;1027217;28;20026;-63
2021/01/17 00:03:17;;;;;;;49.42;27.15;;;;;;;-5.18;100.00;95850.19;1029063;28;20034;-63
2021/01/17 00:03:47;;;;;;;48.92;26.02;;;;;;;-5.10;100.00;95850.16;1028229;28;21042;-63
2021/01/17 00:04:18;;;;;;;49.40;26.93;;;;;;;-5.06;100.00;95860.91;1035552;28;20025;-63
2021/01/17 00:04:48;;;;;;;46.70;26.53;;;;;;;-5.09;100.00;95856.91;1040563;28;20021;-62
2021/01/17 00:05:23;;;;;;;50.10;26.90;;;;;;;-5.05;100.00;95854.81;1034427;28;20094;-64
2021/01/17 00:05:55;;;;;;;44.30;25.35;;;;;;;-5.11;100.00;95840.09;1038681;28;20080;-65
2021/01/17 00:06:25;;;;;;;50.10;27.92;;;;;;;-5.02;100.00;95857.84;1034628;28;20036;-64
2021/01/17 00:06:56;;;;;;;44.60;24.53;;;;;;;-5.06;100.00;95853.22;1035798;28;20022;-63
2021/01/17 00:07:30;;;;;;;45.87;24.33;;;;;;;-5.06;100.00;95845.56;1039525;28;20068;-64
2021/01/17 00:08:05;;;;;;;50.90;25.90;;;;;;;-5.01;100.00;95849.19;1042861;28;20685;-64
2021/01/17 00:08:36;;;;;;;50.72;26.70;;;;;;;-4.99;100.00;95856.72;1044098;28;20177;-62
2021/01/17 00:09:06;;;;;;;45.90;25.30;;;;;;;-4.99;100.00;95852.41;1041138;28;20561;-62
2021/01/17 00:09:37;;;;;;;46.03;25.50;;;;;;;-4.97;100.00;95853.03;1040056;28;20023;-62
2021/01/17 00:10:12;;;;;;;45.93;25.67;;;;;;;-4.93;100.00;95853.50;1046764;28;20078;-63
2021/01/17 00:10:42;;;;;;;49.35;27.38;;;;;;;-4.95;99.85;95846.97;1044621;28;20540;-63
2021/01/17 00:11:13;;;;;;;47.23;27.03;;;;;;;-4.92;99.93;95851.75;1039915;28;20025;-64
2021/01/17 00:11:48;;;;;;;42.37;24.73;;;;;;;-4.93;100.00;95850.94;1041807;28;20115;-63
2021/01/17 00:12:19;;;;;;;48.38;26.83;;;;;;;-4.93;99.77;95850.94;1037495;28;20028;-63
2021/01/17 00:12:53;;;;;;;49.90;26.53;;;;;;;-4.93;99.94;95837.34;1040247;28;20030;-63
2021/01/17 00:13:23;;;;;;;52.10;27.80;;;;;;;-4.90;99.75;95839.59;1040021;28;20021;-63
2021/01/17 00:13:54;;;;;;;48.87;26.53;;;;;;;-4.90;99.66;95835.25;1036645;28;20029;-64
2021/01/17 00:14:24;;;;;;;46.67;25.27;;;;;;;-4.87;100.00;95842.59;1040028;28;20075;-61
2021/01/17 00:14:55;;;;;;;44.73;24.60;;;;;;;-4.88;99.50;95838.47;1040558;28;20028;-61
2021/01/17 00:15:25;;;;;;;45.30;26.07;;;;;;;-4.87;99.30;95837.50;1037502;28;20373;-61
2021/01/17 00:15:56;;;;;;;50.47;28.27;;;;;;;-4.86;99.37;95838.28;1033775;28;20542;-61
2021/01/17 00:16:26;;;;;;;52.43;26.03;;;;;;;-4.86;99.16;95834.00;1040150;28;20093;-62
2021/01/17 00:16:58;;;;;;;44.10;25.63;;;;;;;-4.86;99.22;95835.72;1046701;28;20048;-60
2021/01/17 00:17:29;;;;;;;45.58;25.63;;;;;;;-4.88;99.09;95830.00;1042966;28;20024;-60
2021/01/17 00:17:59;;;;;;;48.40;26.87;;;;;;;-4.94;99.28;95815.28;1043073;28;20029;-63
2021/01/17 00:18:30;;;;;;;43.37;25.47;;;;;;;-4.84;99.13;95833.81;1038913;28;20425;-61
2021/01/17 00:19:00;;;;;;;46.80;26.40;;;;;;;-4.83;99.00;95835.41;1037988;28;20026;-61
2021/01/17 00:19:31;;;;;;;49.20;27.07;;;;;;;-4.84;98.82;95831.25;1035748;28;20113;-59
2021/01/17 00:20:07;;;;;;;46.97;27.90;;;;;;;-4.84;98.76;95828.69;1032719;28;20011;-60
2021/01/17 00:20:38;;;;;;;45.53;25.92;;;;;;;-4.85;98.77;95827.13;1028142;28;20030;-61
2021/01/17 00:21:08;;;;;;;45.07;24.23;;;;;;;-4.97;98.45;95814.66;1028946;28;20121;-61
2021/01/17 00:21:45;;;;;;;50.33;26.93;;;;;;;-4.87;98.81;95827.25;1029160;28;20027;-63
2021/01/17 00:22:18;;;;;;;44.58;25.20;;;;;;;-4.85;99.09;95827.91;1028920;28;20046;-65
2021/01/17 00:22:50;;;;;;;46.00;25.60;;;;;;;-4.84;98.76;95821.03;1030283;28;20034;-64
2021/01/17 00:23:20;;;;;;;50.83;26.83;;;;;;;-4.81;99.07;95823.25;1029462;28;20125;-63
2021/01/17 00:23:51;;;;;;;45.73;26.67;;;;;;;-4.83;98.80;95817.50;1034577;28;20748;-64
2021/01/17 00:24:21;;;;;;;42.03;25.00;;;;;;;-4.82;99.11;95824.22;1042890;28;20425;-63
2021/01/17 00:24:52;;;;;;;43.53;25.07;;;;;;;-4.81;99.12;95820.69;1042042;28;20017;-63
2021/01/17 00:25:22;;;;;;;46.03;26.03;;;;;;;-4.84;98.93;95816.69;1034529;28;20022;-64
2021/01/17 00:25:53;;;;;;;52.73;26.40;;;;;;;-4.82;98.70;95824.22;1034371;28;20038;-63
2021/01/17 00:26:23;;;;;;;44.10;25.40;;;;;;;-4.88;98.74;95815.44;1037802;28;20060;-64
2021/01/17 00:26:54;;;;;;;51.90;26.67;;;;;;;-4.80;98.87;95823.06;1034927;28;20045;-64
2021/01/17 00:27:24;;;;;;;44.93;26.20;;;;;;;-4.92;98.67;95810.81;1038589;28;20068;-64
2021/01/17 00:27:56;;;;;;;45.67;25.13;;;;;;;-4.85;98.48;95827.13;1030206;28;20014;-63
2021/01/17 00:28:26;;;;;;;48.72;26.70;;;;;;;-4.88;98.85;95825.66;1030720;28;20030;-63
2021/01/17 00:28:57;;;;;;;46.93;26.53;;;;;;;-4.86;99.07;95818.63;1035268;28;20029;-61
2021/01/17 00:29:27;;;;;;;48.87;25.33;;;;;;;-4.84;98.62;95823.59;1039820;28;20022;-63
2021/01/17 00:29:58;;;;;;;47.40;26.07;;;;;;;-4.91;98.83;95808.09;1037931;28;20057;-62
2021/01/17 00:30:31;;;;;;;48.97;26.87;;;;;;;-4.86;98.91;95810.13;1035003;28;20042;-64
2021/01/17 00:31:02;;;;;;;48.08;26.75;;;;;;;-4.86;99.43;95815.25;1011968;28;20023;-65
2021/01/17 00:31:34;;;;;;;48.00;26.30;;;;;;;-4.82;99.45;95814.00;1026322;28;20041;-63
2021/01/17 00:32:11;;;;;;;47.38;25.85;;;;;;;-4.95;99.31;95799.16;1030583;28;20030;-63
2021/01/17 00:32:42;;;;;;;48.75;25.23;;;;;;;-4.90;99.51;95806.31;1029767;28;20097;-63
2021/01/17 00:33:13;;;;;;;49.23;26.37;;;;;;;-4.92;99.50;95800.59;1026262;28;20066;-64
2021/01/17 00:33:44;;;;;;;49.92;26.83;;;;;;;-4.88;99.07;95810.31;1030587;28;20034;-65
2021/01/17 00:34:14;;;;;;;47.50;25.67;;;;;;;-4.99;99.11;95798.69;1030408;28;20014;-63
2021/01/17 00:34:45;;;;;;;43.23;24.60;;;;;;;-4.96;99.38;95800.13;1025673;28;20034;-61
2021/01/17 00:35:15;;;;;;;46.47;26.13;;;;;;;-4.99;99.09;95801.25;1026336;28;20010;-63
2021/01/17 00:35:46;;;;;;;48.03;24.83;;;;;;;-5.16;99.06;95773.28;1022451;28;20616;-64
2021/01/17 00:36:17;;;;;;;46.70;26.57;;;;;;;-4.93;98.95;95809.19;1022669;28;20114;-63
2021/01/17 00:36:50;;;;;;;43.50;25.05;;;;;;;-5.07;98.92;95788.44;1024889;28;20629;-65
2021/01/17 00:37:21;;;;;;;45.70;25.20;;;;;;;-4.99;98.98;95803.00;1026512;28;20035;-64
2021/01/17 00:37:55;;;;;;;43.63;25.17;;;;;;;-5.00;99.17;95803.94;1023018;28;20412;-65
2021/01/17 00:38:27;;;;;;;46.30;25.38;;;;;;;-5.01;99.49;95804.91;1029933;28;20053;-64
2021/01/17 00:38:58;;;;;;;46.65;24.90;;;;;;;-5.00;99.46;95801.38;1034777;28;20064;-64
2021/01/17 00:39:28;;;;;;;47.63;25.63;;;;;;;-5.00;99.74;95802.22;1034465;28;20029;-64
2021/01/17 00:39:59;;;;;;;44.17;25.63;;;;;;;-5.03;99.63;95799.97;1026391;28;20027;-64
2021/01/17 00:40:29;;;;;;;43.47;23.60;;;;;;;-5.05;99.84;95807.00;1026936;28;20065;-64
2021/01/17 00:41:02;;;;;;;51.17;27.23;;;;;;;-5.04;99.82;95797.56;1026524;28;20027;-64
2021/01/17 00:41:33;;;;;;;48.42;26.92;;;;;;;-5.11;99.79;95797.41;1023777;28;20026;-65
2021/01/17 00:42:08;;;;;;;47.53;26.13;;;;;;;-5.08;99.94;95807.31;1031071;28;20395;-63
2021/01/17 00:42:48;;;;;;;46.60;25.45;;;;;;;-5.09;99.96;95799.84;1029942;28;20026;-63
2021/01/17 00:43:19;;;;;;;51.17;25.80;;;;;;;-5.12;100.00;95806.06;1028171;28;20031;-65
2021/01/17 00:43:49;;;;;;;50.50;27.17;;;;;;;-5.10;100.00;95799.00;1030393;28;20035;-64
2021/01/17 00:44:19;;;;;;;45.63;25.80;;;;;;;-5.10;100.00;95806.69;1030840;28;20468;-65
2021/01/17 00:44:50;;;;;;;49.30;26.03;;;;;;;-5.09;100.00;95800.63;1034296;28;20030;-64
2021/01/17 00:45:23;;;;;;;47.27;24.77;;;;;;;-5.16;100.00;95802.25;1034087;28;20093;-65
2021/01/17 00:45:53;;;;;;;49.63;25.65;;;;;;;-5.12;100.00;95805.28;1030617;28;20129;-64
2021/01/17 00:46:24;;;;;;;47.40;25.90;;;;;;;-5.15;100.00;95798.72;1026348;28;20520;-65
2021/01/17 00:46:54;;;;;;;52.77;28.07;;;;;;;-5.20;100.00;95795.84;1030599;28;20022;-65
2021/01/17 00:47:25;;;;;;;51.57;28.00;;;;;;;-5.14;100.00;95797.75;1034684;28;20014;-64
2021/01/17 00:47:56;;;;;;;47.13;26.13;;;;;;;-5.10;100.00;95798.22;1030459;28;20400;-64
2021/01/17 00:48:26;;;;;;;48.33;26.50;;;;;;;-5.17;100.00;95790.41;1030016;28;20120;-64
2021/01/17 00:48:56;;;;;;;49.70;26.83;;;;;;;-5.13;100.00;95791.69;1025747;28;20019;-63
2021/01/17 00:49:27;;;;;;;45.67;25.77;;;;;;;-5.11;100.00;95792.31;1030483;28;20022;-64
2021/01/17 00:49:57;;;;;;;47.23;26.23;;;;;;;-5.11;100.00;95792.31;1026896;28;20089;-64
2021/01/17 00:50:28;;;;;;;49.50;26.57;;;;;;;-5.14;100.00;95784.97;1030612;28;20014;-64
2021/01/17 00:50:59;;;;;;;51.47;27.57;;;;;;;-5.16;100.00;95779.22;1030278;28;20178;-65
2021/01/17 00:51:38;;;;;;;49.07;26.33;;;;;;;-5.08;100.00;95784.31;1022770;28;20051;-65
2021/01/17 00:52:16;;;;;;;45.22;25.50;;;;;;;-5.14;100.00;95777.28;1022359;29;20038;-65
2021/01/17 00:52:53;;;;;;;49.88;26.67;;;;;;;-5.14;100.00;95787.50;1034023;28;20546;-65
2021/01/17 00:53:24;;;;;;;49.60;26.88;;;;;;;-5.14;100.00;95776.50;1034332;28;20022;-65
2021/01/17 00:53:54;;;;;;;50.43;28.03;;;;;;;-5.23;100.00;95773.16;1030536;28;20030;-65
2021/01/17 00:54:25;;;;;;;48.03;27.37;;;;;;;-5.16;100.00;95778.41;1030300;28;20038;-63
2021/01/17 00:54:55;;;;;;;49.43;26.63;;;;;;;-5.17;100.00;95775.06;1029490;28;20112;-64
2021/01/17 00:55:26;;;;;;;50.20;27.50;;;;;;;-5.18;100.00;95768.34;1030577;28;20084;-64
2021/01/17 00:55:56;;;;;;;49.47;26.93;;;;;;;-5.18;100.00;95770.91;1030435;28;20029;-64
2021/01/17 00:56:27;;;;;;;51.30;28.33;;;;;;;-5.23;100.00;95765.50;1030538;28;20928;-64
2021/01/17 00:57:04;;;;;;;49.70;27.67;;;;;;;-5.22;100.00;95767.88;1030670;28;20399;-64
2021/01/17 00:57:35;;;;;;;51.05;26.88;;;;;;;-5.22;100.00;95760.22;1026880;28;20110;-64
2021/01/17 00:58:06;;;;;;;53.67;28.65;;;;;;;-5.18;100.00;95765.00;1023012;28;20023;-64
2021/01/17 00:58:36;;;;;;;48.47;27.73;;;;;;;-5.19;100.00;95764.22;1022647;28;20038;-64
2021/01/17 00:59:08;;;;;;;51.73;27.00;;;;;;;-5.18;100.00;95767.56;1022369;28;20031;-64
2021/01/17 00:59:38;;;;;;;50.53;27.20;;;;;;;-5.18;100.00;95765.78;1027090;28;20026;-65
2021/01/17 01:00:10;;;;;;;50.23;27.87;;;;;;;-5.22;100.00;95759.41;1030728;28;20049;-64
2021/01/17 01:00:40;;;;;;;47.30;26.80;;;;;;;-5.17;100.00;95762.25;1026281;28;20019;-64
2021/01/17 01:01:11;;;;;;;54.20;30.00;;;;;;;-5.17;100.00;95767.38;1029097;28;20042;-65
2021/01/17 01:01:43;;;;;;;47.63;25.93;;;;;;;-5.16;100.00;95766.44;1030713;28;20129;-64
2021/01/17 01:02:13;;;;;;;49.60;26.02;;;;;;;-5.16;100.00;95760.50;1031038;28;20014;-65
2021/01/17 01:02:44;;;;;;;50.00;26.83;;;;;;;-5.23;100.00;95755.28;1032245;28;20034;-65
2021/01/17 01:03:14;;;;;;;49.87;27.87;;;;;;;-5.18;100.00;95763.22;1022513;28;20167;-64
2021/01/17 01:03:45;;;;;;;51.30;27.50;;;;;;;-5.18;100.00;95763.22;1026954;28;20046;-64
2021/01/17 01:04:16;;;;;;;52.73;26.40;;;;;;;-5.19;100.00;95769.31;1026328;28;20031;-65
2021/01/17 01:04:46;;;;;;;50.13;27.17;;;;;;;-5.20;100.00;95762.59;1022117;28;20046;-64
2021/01/17 01:05:17;;;;;;;56.20;28.67;;;;;;;-5.18;100.00;95760.69;1034251;28;20049;-65
2021/01/17 01:05:47;;;;;;;53.63;28.10;;;;;;;-5.18;100.00;95765.78;1026544;28;20500;-65
2021/01/17 01:06:18;;;;;;;52.83;27.93;;;;;;;-5.16;100.00;95760.50;1029636;28;20054;-64
2021/01/17 01:06:51;;;;;;;50.00;26.90;;;;;;;-5.17;100.00;95754.59;1034483;28;20033;-63
2021/01/17 01:07:27;;;;;;;51.38;28.35;;;;;;;-5.20;100.00;95765.16;1031197;28;20070;-63
2021/01/17 01:07:59;;;;;;;49.65;25.58;;;;;;;-5.20;100.00;95760.03;1032923;28;20065;-63
2021/01/17 01:08:30;;;;;;;49.40;27.00;;;;;;;-5.20;100.00;95757.47;1030305;28;20042;-64
2021/01/17 01:09:03;;;;;;;48.70;26.87;;;;;;;-5.22;100.00;95757.66;1027393;28;20023;-64
2021/01/17 01:09:34;;;;;;;54.53;27.60;;;;;;;-5.22;100.00;95755.09;1027099;28;20019;-64
2021/01/17 01:10:06;;;;;;;48.00;26.90;;;;;;;-5.26;100.00;95753.84;1029707;28;20026;-64
2021/01/17 01:10:36;;;;;;;52.40;28.58;;;;;;;-5.23;100.00;95747.59;1033886;28;20072;-64
2021/01/17 01:11:06;;;;;;;49.80;27.53;;;;;;;-5.26;100.00;95748.72;1034953;28;20076;-64
2021/01/17 01:11:37;;;;;;;48.40;27.07;;;;;;;-5.22;100.00;95749.19;1035086;28;20081;-65
2021/01/17 01:12:08;;;;;;;53.50;28.53;;;;;;;-5.21;100.00;95750.78;1035637;28;20073;-65
2021/01/17 01:12:39;;;;;;;54.10;28.08;;;;;;;-5.26;100.00;95745.38;1031258;28;20480;-66
2021/01/17 01:13:10;;;;;;;56.27;28.70;;;;;;;-5.27;100.00;95744.53;1026859;28;20627;-65
2021/01/17 01:13:40;;;;;;;55.30;29.40;;;;;;;-5.22;100.00;95754.31;1026796;28;20022;-64
2021/01/17 01:14:11;;;;;;;48.97;27.07;;;;;;;-5.21;100.00;95750.78;1021789;28;20031;-64
2021/01/17 01:14:41;;;;;;;49.00;27.47;;;;;;;-5.23;100.00;95750.16;1027010;28;20026;-64
2021/01/17 01:15:12;;;;;;;52.93;28.03;;;;;;;-5.25;100.00;95754.63;1030836;28;20069;-64
2021/01/17 01:15:43;;;;;;;51.47;28.17;;;;;;;-5.22;100.00;95755.09;1035201;28;20112;-64
2021/01/17 01:16:14;;;;;;;56.27;30.37;;;;;;;-5.19;100.00;95753.97;1039272;28;20056;-64
2021/01/17 01:16:51;;;;;;;51.33;28.00;;;;;;;-5.19;100.00;95759.09;1035560;28;20046;-64
2021/01/17 01:17:24;;;;;;;47.53;26.83;;;;;;;-5.18;100.00;95757.31;1040048;28;20029;-67
2021/01/17 01:17:55;;;;;;;49.28;26.60;;;;;;;-5.17;100.00;95751.25;1035020;28;20025;-65
2021/01/17 01:18:25;;;;;;;52.30;27.63;;;;;;;-5.18;100.00;95758.13;1029820;28;20452;-65
2021/01/17 01:18:56;;;;;;;56.77;30.27;;;;;;;-5.19;100.00;95756.53;1035730;28;20049;-64
2021/01/17 01:19:27;;;;;;;53.10;28.47;;;;;;;-5.22;100.00;95744.88;1036528;28;20029;-65
2021/01/17 01:19:57;;;;;;;52.30;28.00;;;;;;;-5.19;100.00;95753.97;1035423;28;20375;-64
2021/01/17 01:20:28;;;;;;;49.00;27.17;;;;;;;-5.22;100.00;95749.97;1035696;28;20477;-65
2021/01/17 01:20:58;;;;;;;53.47;28.97;;;;;;;-5.22;100.00;95751.75;1031483;28;20026;-65
2021/01/17 01:21:33;;;;;;;55.00;28.80;;;;;;;-5.22;100.00;95754.31;1031707;28;20546;-66
2021/01/17 01:22:04;;;;;;;54.97;28.95;;;;;;;-5.27;100.00;95744.53;1031003;28;20657;-65
2021/01/17 01:22:34;;;;;;;55.63;28.43;;;;;;;-5.22;100.00;95751.75;1031238;28;20073;-65
2021/01/17 01:23:05;;;;;;;50.07;27.50;;;;;;;-5.29;100.00;95738.81;1027263;28;20117;-65
2021/01/17 01:23:35;;;;;;;53.03;28.83;;;;;;;-5.18;100.00;95741.97;1022504;29;20027;-65
2021/01/17 01:24:06;;;;;;;54.07;29.00;;;;;;;-5.16;100.00;95748.53;1019040;29;20027;-65
2021/01/17 01:24:37;;;;;;;49.23;28.37;;;;;;;-5.19;100.00;95743.75;1020221;28;20015;-64
2021/01/17 01:25:09;;;;;;;54.23;28.80;;;;;;;-5.18;100.00;95737.66;1022738;28;20401;-65
2021/01/17 01:25:39;;;;;;;55.60;28.90;;;;;;;-5.17;100.00;95741.81;1031659;28;20035;-65
2021/01/17 01:26:10;;;;;;;53.70;28.50;;;;;;;-5.16;100.00;95747.72;1031086;28;20022;-64
2021/01/17 01:26:42;;;;;;;51.67;28.63;;;;;;;-5.19;100.00;95737.84;1028732;28;20038;-64
2021/01/17 01:27:12;;;;;;;54.30;29.23;;;;;;;-5.18;100.00;95739.41;1026411;28;20026;-64
2021/01/17 01:27:48;;;;;;;54.20;29.30;;;;;;;-5.18;100.00;95742.78;1025986;28;20037;-64
2021/01/17 01:28:19;;;;;;;55.20;29.17;;;;;;;-5.17;100.00;95736.69;1026867;28;20022;-65
2021/01/17 01:28:50;;;;;;;52.63;28.50;;;;;;;-5.24;100.00;95730.63;1028281;28;20023;-65
2021/01/17 01:29:21;;;;;;;54.17;29.00;;;;;;;-5.15;100.00;95737.34;1030393;28;21892;-65
2021/01/17 01:29:51;;;;;;;52.43;27.73;;;;;;;-5.14;100.00;95741.47;1023505;28;20102;-67
2021/01/17 01:30:22;;;;;;;55.93;28.90;;;;;;;-5.13;100.00;95744.81;1030267;28;20023;-66
2021/01/17 01:30:54;;;;;;;56.17;29.93;;;;;;;-5.29;100.00;95722.69;1027348;28;20058;-65
2021/01/17 01:31:25;;;;;;;57.22;30.88;;;;;;;-5.28;100.00;95719.16;1030984;28;20395;-65
2021/01/17 01:31:55;;;;;;;50.37;27.67;;;;;;;-5.16;100.00;95738.31;1035034;28;20061;-64
2021/01/17 01:32:26;;;;;;;58.13;31.57;;;;;;;-5.13;100.00;95745.66;1031193;28;20760;-65
2021/01/17 01:32:56;;;;;;;54.47;29.27;;;;;;;-5.18;100.00;95735.09;1033683;28;20027;-66
2021/01/17 01:33:27;;;;;;;55.60;30.60;;;;;;;-5.13;100.00;95739.72;1031134;28;20117;-65
2021/01/17 01:33:57;;;;;;;58.67;30.67;;;;;;;-5.26;100.00;95717.25;1031532;28;20034;-63
2021/01/17 01:34:28;;;;;;;60.57;31.77;;;;;;;-5.10;100.00;95734.28;1034788;28;20622;-64
2021/01/17 01:34:58;;;;;;;58.40;31.67;;;;;;;-5.11;100.00;95730.13;1039047;28;20022;-66
2021/01/17 01:35:29;;;;;;;56.60;31.30;;;;;;;-5.09;100.00;95729.00;1030996;28;20794;-65
2021/01/17 01:36:00;;;;;;;56.90;30.00;;;;;;;-5.16;100.00;95720.41;1031132;28;20026;-65
2021/01/17 01:36:38;;;;;;;53.67;30.50;;;;;;;-5.13;100.00;95717.53;1036543;28;20025;-65
2021/01/17 01:37:08;;;;;;;52.40;29.05;;;;;;;-5.10;100.00;95724.84;1035026;28;20514;-66
2021/01/17 01:37:39;;;;;;;54.10;29.00;;;;;;;-5.05;100.00;95721.78;1031297;28;20038;-65
2021/01/17 01:38:09;;;;;;;55.10;29.23;;;;;;;-5.11;100.00;95720.69;1034858;28;20017;-64
2021/01/17 01:38:40;;;;;;;55.50;30.07;;;;;;;-5.09;100.00;95718.78;1035467;28;20361;-62
2021/01/17 01:39:11;;;;;;;54.37;28.47;;;;;;;-5.14;100.00;95710.78;1031303;28;20126;-64
2021/01/17 01:39:41;;;;;;;58.57;30.27;;;;;;;-5.06;100.00;95722.78;1035002;28;20335;-64
2021/01/17 01:40:12;;;;;;;55.53;28.67;;;;;;;-5.15;100.00;95706.63;1035275;28;20045;-64
2021/01/17 01:40:53;;;;;;;52.10;28.03;;;;;;;-5.21;100.00;95700.41;1035227;28;20017;-64
2021/01/17 01:41:30;;;;;;;56.05;29.65;;;;;;;-5.14;100.00;95702.31;1030469;28;20487;-65
2021/01/17 01:42:05;;;;;;;55.38;28.98;;;;;;;-5.07;100.00;95711.72;1027348;28;20270;-65
2021/01/17 01:42:40;;;;;;;58.45;28.98;;;;;;;-5.05;100.00;95721.78;1035012;28;20100;-65
2021/01/17 01:43:15;;;;;;;56.25;31.27;;;;;;;-5.37;100.00;95661.31;1027029;28;20011;-66
2021/01/17 01:43:45;;;;;;;59.40;32.00;;;;;;;-5.07;100.00;95705.81;1034274;28;20057;-64
2021/01/17 01:44:16;;;;;;;60.27;31.47;;;;;;;-5.03;100.00;95709.63;1039227;28;20083;-64
2021/01/17 01:44:47;;;;;;;58.70;30.57;;;;;;;-5.03;100.00;95709.63;1038349;28;20024;-64
2021/01/17 01:45:17;;;;;;;55.87;30.63;;;;;;;-5.03;100.00;95707.88;1039394;28;20016;-65
2021/01/17 01:45:48;;;;;;;65.70;33.87;;;;;;;-4.98;100.00;95709.94;1032426;28;20022;-64
2021/01/17 01:46:20;;;;;;;56.93;31.33;;;;;;;-4.99;100.00;95711.69;1031251;28;20023;-65
2021/01/17 01:46:55;;;;;;;57.47;30.77;;;;;;;-5.03;100.00;95702.78;1030896;28;20065;-64
2021/01/17 01:47:27;;;;;;;59.92;30.38;;;;;;;-5.00;100.00;95704.16;1031315;28;20033;-65
2021/01/17 01:47:58;;;;;;;55.92;30.30;;;;;;;-5.11;100.00;95692.56;1027078;28;20070;-62
2021/01/17 01:48:30;;;;;;;55.07;29.33;;;;;;;-4.98;100.00;95705.59;1030814;28;20434;-64
2021/01/17 01:49:01;;;;;;;57.58;29.67;;;;;;;-5.00;100.00;95701.63;1030662;28;20054;-65
2021/01/17 01:49:31;;;;;;;56.40;30.60;;;;;;;-5.01;100.00;95705.94;1023910;28;20023;-65
2021/01/17 01:50:03;;;;;;;53.37;30.00;;;;;;;-5.01;100.00;95703.38;1024101;28;21344;-65
2021/01/17 01:50:34;;;;;;;62.28;30.80;;;;;;;-4.97;100.00;95703.84;1031289;28;20089;-66
2021/01/17 01:51:05;;;;;;;54.97;31.00;;;;;;;-5.01;100.00;95700.03;1035196;28;20034;-65
2021/01/17 01:51:37;;;;;;;62.00;31.23;;;;;;;-5.04;100.00;95697.81;1031332;28;20072;-63
2021/01/17 01:52:07;;;;;;;55.83;30.25;;;;;;;-5.06;100.00;95687.75;1031064;28;20066;-65
2021/01/17 01:52:38;;;;;;;56.40;29.23;;;;;;;-5.01;100.00;95700.81;1031205;28;20022;-65
2021/01/17 01:53:09;;;;;;;53.97;28.13;;;;;;;-5.00;100.00;95701.63;1026874;28;20021;-64
2021/01/17 01:53:40;;;;;;;53.13;28.67;;;;;;;-5.01;100.00;95700.03;1027107;28;20097;-64
2021/01/17 01:54:10;;;;;;;55.73;29.93;;;;;;;-5.03;100.00;95684.03;1031419;28;20029;-64
2021/01/17 01:54:41;;;;;;;56.17;30.40;;;;;;;-5.01;100.00;95695.72;1030916;28;20015;-65
2021/01/17 01:55:12;;;;;;;50.57;27.60;;;;;;;-5.06;100.00;95692.88;1029816;28;20029;-64
2021/01/17 01:55:43;;;;;;;54.80;29.90;;;;;;;-5.07;100.00;95696.38;1035469;28;20022;-64
2021/01/17 01:56:14;;;;;;;58.53;29.40;;;;;;;-5.11;100.00;95687.44;1039177;28;20252;-65
2021/01/17 01:56:45;;;;;;;56.03;28.70;;;;;;;-5.07;100.00;95696.38;1030435;28;20018;-65
2021/01/17 01:57:15;;;;;;;52.67;30.00;;;;;;;-5.11;100.00;95692.56;1023301;28;20016;-63
2021/01/17 01:57:46;;;;;;;54.23;29.60;;;;;;;-5.25;100.00;95675.34;1019481;29;20019;-64
2021/01/17 01:58:16;;;;;;;57.07;30.57;;;;;;;-5.22;100.00;95678.38;1020392;28;20445;-64
2021/01/17 01:58:47;;;;;;;56.73;29.33;;;;;;;-5.14;100.00;95686.97;1027011;28;20023;-63
2021/01/17 01:59:17;;;;;;;56.27;31.23;;;;;;;-5.16;100.00;95692.28;1030971;28;20026;-64
2021/01/17 01:59:48;;;;;;;57.87;30.63;;;;;;;-5.14;100.00;95687.78;1035369;28;20494;-64
2021/01/17 02:00:18;;;;;;;55.23;30.27;;;;;;;-5.15;100.00;95686.19;1039045;28;20079;-64
2021/01/17 02:00:50;;;;;;;57.03;29.90;;;;;;;-5.10;100.00;95689.03;1035303;28;20026;-65
2021/01/17 02:01:24;;;;;;;54.13;30.02;;;;;;;-5.17;100.00;95690.66;1031250;28;20502;-64
2021/01/17 02:01:54;;;;;;;55.70;29.73;;;;;;;-5.16;100.00;95678.66;1030929;28;20023;-64
2021/01/17 02:02:25;;;;;;;58.97;30.70;;;;;;;-5.15;100.00;95680.28;1031129;28;20019;-64
2021/01/17 02:02:55;;;;;;;59.43;30.90;;;;;;;-5.16;100.00;95676.91;1027061;28;20010;-65
2021/01/17 02:03:26;;;;;;;61.03;30.47;;;;;;;-5.20;100.00;95673.09;1026572;28;20114;-64
2021/01/17 02:03:56;;;;;;;59.90;30.53;;;;;;;-5.26;100.00;95666.88;1035381;28;20751;-64
2021/01/17 02:04:27;;;;;;;57.30;31.30;;;;;;;-5.17;100.00;95677.06;1027035;28;20027;-64
2021/01/17 02:04:57;;;;;;;58.07;32.13;;;;;;;-5.19;100.00;95677.25;1022562;29;20433;-64
2021/01/17 02:05:28;;;;;;;63.93;32.80;;;;;;;-5.21;100.00;95674.84;1026137;28;20015;-64
2021/01/17 02:05:59;;;;;;;62.23;31.57;;;;;;;-5.18;100.00;95681.41;1031053;28;20558;-64
2021/01/17 02:06:29;;;;;;;63.53;32.17;;;;;;;-5.22;100.00;95673.25;1030943;28;20026;-64
2021/01/17 02:07:31;;;;;;;61.27;31.90;;;;;;;-5.29;100.00;95661.31;1031904;28;20451;-63
2021/01/17 02:08:26;;;;;;;57.35;30.27;;;;;;;-5.24;100.00;95662.38;1023227;29;20034;-65
2021/01/17 02:09:20;;;;;;;59.95;30.58;;;;;;;-5.25;100.00;95667.69;1022563;29;20118;-63
2021/01/17 02:09:51;;;;;;;60.80;30.60;;;;;;;-5.30;100.00;95652.03;1028925;28;20493;-64
2021/01/17 02:10:21;;;;;;;61.87;29.83;;;;;;;-5.28;100.00;95657.78;1024688;28;20063;-63
2021/01/17 02:10:52;;;;;;;63.87;31.90;;;;;;;-5.29;100.00;95666.44;1023364;29;20027;-64
2021/01/17 02:11:44;;;;;;;68.17;32.87;;;;;;;-5.28;100.00;95662.91;1023199;29;20015;-64
2021/01/17 02:12:36;;;;;;;64.90;31.45;;;;;;;-5.32;100.00;95653.97;1029748;28;20023;-63
2021/01/17 02:13:13;;;;;;;65.63;31.85;;;;;;;-5.27;100.00;95665.28;1030930;28;20073;-64
2021/01/17 02:13:44;;;;;;;66.32;32.95;;;;;;;-5.26;100.00;95659.22;1027170;28;20023;-65
2021/01/17 02:14:33;;;;;;;63.17;30.80;;;;;;;-5.26;100.00;95656.66;1026994;28;20030;-64
2021/01/17 02:15:08;;;;;;;65.00;31.63;;;;;;;-5.31;100.00;95653.78;1026163;28;20019;-64
2021/01/17 02:15:39;;;;;;;65.32;31.17;;;;;;;-5.26;100.00;95656.66;1030851;28;20022;-63
2021/01/17 02:16:09;;;;;;;66.63;31.97;;;;;;;-5.25;100.00;95657.44;1026770;28;20030;-63
2021/01/17 02:16:40;;;;;;;66.53;32.70;;;;;;;-5.33;100.00;95655.72;1030812;28;20266;-62
2021/01/17 02:17:13;;;;;;;66.57;33.80;;;;;;;-5.32;100.00;95657.31;1030437;28;20452;-64
2021/01/17 02:17:43;;;;;;;68.50;33.90;;;;;;;-5.26;100.00;95645.63;1034968;28;20030;-64
2021/01/17 02:18:14;;;;;;;64.83;32.93;;;;;;;-5.24;100.00;95643.69;1030663;28;20017;-64
2021/01/17 02:18:44;;;;;;;66.47;33.00;;;;;;;-5.20;100.00;95650.06;1024587;28;20481;-65
2021/01/17 02:19:15;;;;;;;67.30;33.23;;;;;;;-5.24;100.00;95643.69;1023188;28;20078;-64
2021/01/17 02:20:04;;;;;;;61.60;31.63;;;;;;;-5.19;100.00;95649.13;1030976;28;20019;-66
2021/01/17 02:20:37;;;;;;;58.95;29.23;;;;;;;-5.21;100.00;95648.47;1034871;28;20014;-64
2021/01/17 02:21:08;;;;;;;64.60;31.52;;;;;;;-5.21;100.00;95643.38;1018095;29;20019;-64
2021/01/17 02:21:40;;;;;;;65.50;31.10;;;;;;;-5.24;100.00;95643.69;1022492;28;20218;-63
2021/01/17 02:22:10;;;;;;;61.50;31.73;;;;;;;-5.22;100.00;95641.78;1027264;28;20050;-63
2021/01/17 02:22:44;;;;;;;67.67;33.43;;;;;;;-5.15;100.00;95647.81;1027035;28;20073;-65
2021/01/17 02:23:21;;;;;;;65.55;30.73;;;;;;;-5.17;100.00;95646.38;1027098;28;20401;-63
2021/01/17 02:23:59;;;;;;;68.28;32.03;;;;;;;-5.13;100.00;95655.31;1034945;28;20021;-64
2021/01/17 02:24:37;;;;;;;67.82;35.28;;;;;;;-5.17;100.00;95642.06;1026579;28;20558;-66
2021/01/17 02:25:08;;;;;;;62.00;32.60;;;;;;;-5.19;100.00;95635.53;1025112;28;20018;-64
2021/01/17 02:25:39;;;;;;;64.22;32.17;;;;;;;-5.12;100.00;95651.81;1024599;28;20023;-63
2021/01/17 02:26:09;;;;;;;64.33;32.53;;;;;;;-5.12;100.00;95650.03;1023816;28;20012;-63
2021/01/17 02:26:40;;;;;;;59.13;31.40;;;;;;;-5.05;100.00;95652.72;1030467;28;20105;-65